Main page
METAR-TAF:

METAR-TAF

Airports :

Ankara Esenboğa, Turkey

Esenboğa International Airport

latitude: 40-07N, longitude: 032-59E, elevation: 953 m

Current weather observation

The report was made 38 minutes ago, at 08:20 UTC
Wind 3 kt from variable directions
Temperature 23°C
Humidity 20%
Pressure 1015 hPa
Visibility 10 km or more
no clouds below 1500 m and no cumulonimbus

METAR: LTAC 300820Z VRB03KT CAVOK 23/M01 Q1015 NOSIG RMK RWY21L VRB03KT RWY03L VRB02KT RWY21R VRB02KT

Time: 11:58 (08:58 UTC)

Forecast

The report was made 4 hours and 18 minutes ago, at 04:40 UTC
Forecast valid from 30 at 06 UTC to 01 at 06 UTC
Wind 2 kt from variable directions
Visibility 10 km or more
no clouds below 1500 m and no cumulonimbus
Becoming
from 30 at 09 UTC to 30 at 12 UTC
Scattered clouds at a height of 4000 ft

TAF: LTAC 300440Z 3006/0106 VRB02KT CAVOK BECMG 3009/3012 SCT040

Weather observations and forecasts of more than 4000 airports (METAR and TAF reports).

The available stations are represented by yellow and red dots on the map.

Hover mouse over dot to see the name of the station.

Then click to see weather observations and forecasts.

To change the map : click on the green buttons with a black cross to zoom in, on the green button with a dash to zoom out, or on the green arrows for adjacent maps.


METAR-TAF: